Time;durP1;ratioP1;P1;durP2;ratioP2;P2;SDS_P1;SDS_P2;PMS_P1;PMS_P2;Temp;Humidity;BMP_temperature;BMP_pressure;BME280_temperature;BME280_humidity;BME280_pressure;Samples;Min_cycle;Max_cycle;Signal;HPM_P1;HPM_P2
2021/12/12 00:00:30;;;;;;;11.70;8.45;;;12.00;99.90;;;;;;5049697;28;20486;-78
2021/12/12 00:03:01;;;;;;;10.27;8.80;;;12.00;99.90;;;;;;5050962;28;20045;-78
2021/12/12 00:05:41;;;;;;;11.98;8.43;;;12.00;99.90;;;;;;5050391;28;20021;-78
2021/12/12 00:08:08;;;;;;;11.38;9.07;;;12.00;99.90;;;;;;5050965;28;20096;-76
2021/12/12 00:10:37;;;;;;;13.77;8.00;;;12.00;99.90;;;;;;5050923;28;20099;-78
2021/12/12 00:13:21;;;;;;;13.48;9.43;;;12.00;99.90;;;;;;5050468;28;20052;-77
2021/12/12 00:15:47;;;;;;;15.77;8.18;;;11.90;99.90;;;;;;5050407;28;20032;-77
2021/12/12 00:18:13;;;;;;;9.20;7.72;;;12.00;99.90;;;;;;5049374;28;20475;-79
2021/12/12 00:20:39;;;;;;;9.32;7.32;;;11.90;99.90;;;;;;5050235;28;20136;-79
2021/12/12 00:23:06;;;;;;;13.73;6.63;;;11.90;99.90;;;;;;5016247;28;20127;-78
2021/12/12 00:25:43;;;;;;;11.85;7.25;;;11.90;99.90;;;;;;5048595;28;20049;-77
2021/12/12 00:28:11;;;;;;;11.35;7.72;;;11.90;99.90;;;;;;5050437;28;20029;-77
2021/12/12 00:30:38;;;;;;;10.80;7.03;;;11.90;99.90;;;;;;5048957;28;20250;-78
2021/12/12 00:33:05;;;;;;;11.15;6.88;;;11.90;99.90;;;;;;5049070;28;20036;-77
2021/12/12 00:35:32;;;;;;;9.88;6.22;;;11.90;99.90;;;;;;5048958;28;20111;-79
2021/12/12 00:38:07;;;;;;;11.90;7.85;;;11.90;99.90;;;;;;5050188;28;20032;-77
2021/12/12 00:40:37;;;;;;;10.95;7.40;;;11.90;99.90;;;;;;5049964;28;20115;-79
2021/12/12 00:43:34;;;;;;;8.75;6.95;;;11.90;99.90;;;;;;5050130;28;20025;-77
2021/12/12 00:46:03;;;;;;;11.75;7.70;;;11.80;99.90;;;;;;5049771;28;20040;-78
2021/12/12 00:48:30;;;;;;;12.55;7.55;;;11.90;99.90;;;;;;5050164;28;20376;-79
2021/12/12 00:50:58;;;;;;;10.27;7.57;;;11.80;99.90;;;;;;5050040;28;20079;-77
2021/12/12 00:53:24;;;;;;;12.10;8.13;;;11.80;99.90;;;;;;5032373;28;20039;-77
2021/12/12 00:55:53;;;;;;;14.63;7.10;;;11.80;99.90;;;;;;5049994;28;20025;-79
2021/12/12 00:58:19;;;;;;;10.00;8.02;;;11.90;99.90;;;;;;5049881;28;20044;-77
2021/12/12 01:01:02;;;;;;;13.18;7.70;;;11.80;99.90;;;;;;5048390;28;20026;-78
2021/12/12 01:03:34;;;;;;;11.43;7.32;;;11.80;99.90;;;;;;5048469;28;20033;-74
2021/12/12 01:06:01;;;;;;;17.98;7.70;;;11.90;99.90;;;;;;5049673;28;20025;-74
2021/12/12 01:08:28;;;;;;;6.75;6.15;;;11.90;99.90;;;;;;5047584;28;20021;-76
2021/12/12 01:11:05;;;;;;;9.93;6.60;;;11.80;99.90;;;;;;5049604;28;20037;-76
2021/12/12 01:13:31;;;;;;;9.85;7.68;;;11.80;99.90;;;;;;5049841;28;20029;-77
2021/12/12 01:16:06;;;;;;;10.10;7.00;;;11.80;99.90;;;;;;5049594;28;20039;-79
2021/12/12 01:18:36;;;;;;;7.95;6.70;;;11.80;99.90;;;;;;5049696;28;20025;-78
2021/12/12 01:21:16;;;;;;;8.80;7.90;;;11.80;99.90;;;;;;5049439;28;20025;-80
2021/12/12 01:23:50;;;;;;;10.05;7.43;;;11.80;99.90;;;;;;5049354;28;20128;-75
2021/12/12 01:26:17;;;;;;;13.27;6.82;;;11.80;99.90;;;;;;5049477;28;20024;-77
2021/12/12 01:28:46;;;;;;;9.77;6.90;;;11.80;99.90;;;;;;5048203;28;20025;-78
2021/12/12 01:31:23;;;;;;;7.88;6.85;;;11.80;99.90;;;;;;5049484;28;20383;-77
2021/12/12 01:33:57;;;;;;;13.75;7.03;;;11.80;99.90;;;;;;5049456;28;20029;-76
2021/12/12 01:36:28;;;;;;;10.65;7.05;;;11.80;99.90;;;;;;5049305;28;20420;-75
2021/12/12 01:38:56;;;;;;;8.05;7.22;;;11.70;99.90;;;;;;5048423;28;20040;-77
2021/12/12 01:41:52;;;;;;;9.38;6.93;;;11.70;99.90;;;;;;5049394;28;20040;-79
2021/12/12 01:44:41;;;;;;;6.97;6.25;;;11.70;99.90;;;;;;5049516;28;20095;-78
2021/12/12 01:47:20;;;;;;;7.82;6.20;;;11.70;99.90;;;;;;5049114;28;20364;-78
2021/12/12 01:49:50;;;;;;;10.60;7.28;;;11.70;99.90;;;;;;5047825;28;20033;-78
2021/12/12 01:52:21;;;;;;;6.95;5.78;;;11.70;99.90;;;;;;5049209;28;20488;-78
2021/12/12 01:54:49;;;;;;;11.93;6.20;;;11.70;99.90;;;;;;5048947;28;20029;-78
2021/12/12 01:57:30;;;;;;;9.13;6.57;;;11.70;99.90;;;;;;5048998;28;20390;-76
2021/12/12 01:59:59;;;;;;;8.25;6.43;;;11.70;99.90;;;;;;5049146;28;20039;-76
2021/12/12 02:02:31;;;;;;;6.97;6.28;;;11.70;99.90;;;;;;5049120;28;20432;-78
2021/12/12 02:05:02;;;;;;;7.43;5.80;;;11.70;99.90;;;;;;5049226;28;20032;-77
2021/12/12 02:07:32;;;;;;;9.82;5.63;;;11.80;99.90;;;;;;5049066;28;20024;-77
2021/12/12 02:10:01;;;;;;;9.93;6.22;;;11.80;99.90;;;;;;5049148;28;20375;-75
2021/12/12 02:12:27;;;;;;;9.10;5.63;;;11.80;99.90;;;;;;5048349;28;20036;-77
2021/12/12 02:14:54;;;;;;;10.10;6.55;;;11.80;99.90;;;;;;5048575;28;20029;-78
2021/12/12 02:17:37;;;;;;;9.88;6.65;;;11.80;99.90;;;;;;5049308;28;20062;-75
2021/12/12 02:23:03;;;;;;;10.90;6.95;;;11.80;99.90;;;;;;5048333;28;20338;-78
2021/12/12 02:36:33;;;;;;;7.35;6.18;;;11.80;99.90;;;;;;5048329;28;20040;-79
2021/12/12 02:39:02;;;;;;;11.27;7.13;;;11.80;99.90;;;;;;5048221;28;20094;-78
2021/12/12 02:41:28;;;;;;;12.20;6.50;;;11.80;99.90;;;;;;5048264;28;20547;-78
2021/12/12 02:43:58;;;;;;;13.02;6.50;;;11.80;99.90;;;;;;5046995;28;20079;-79
2021/12/12 02:46:32;;;;;;;14.85;6.90;;;11.80;99.90;;;;;;5048117;28;20055;-78
2021/12/12 02:49:06;;;;;;;7.93;6.30;;;11.80;99.90;;;;;;5048003;28;20116;-75
2021/12/12 02:51:37;;;;;;;10.43;6.43;;;11.80;99.90;;;;;;5048161;28;20630;-79
2021/12/12 02:54:04;;;;;;;8.50;6.70;;;11.80;99.90;;;;;;5048062;28;20442;-77
2021/12/12 02:56:38;;;;;;;10.18;5.82;;;11.80;99.90;;;;;;5046735;28;20460;-78
2021/12/12 02:59:12;;;;;;;7.63;6.40;;;11.90;99.90;;;;;;5047939;28;20017;-80
2021/12/12 03:01:47;;;;;;;7.03;6.38;;;11.80;99.90;;;;;;5047951;28;20031;-78
2021/12/12 03:04:13;;;;;;;8.75;5.85;;;11.80;99.90;;;;;;5047931;28;20032;-78
2021/12/12 03:06:41;;;;;;;7.75;6.00;;;11.80;99.90;;;;;;5046609;28;20025;-77
2021/12/12 03:09:18;;;;;;;9.10;5.70;;;11.80;99.90;;;;;;5047686;28;20066;-80
2021/12/12 03:11:45;;;;;;;8.45;5.93;;;11.80;99.90;;;;;;5047542;28;20112;-78
2021/12/12 03:14:11;;;;;;;11.02;6.32;;;11.80;99.90;;;;;;5046149;28;20036;-80
2021/12/12 03:16:37;;;;;;;8.57;6.03;;;11.80;99.90;;;;;;5045791;28;20116;-79
2021/12/12 03:19:05;;;;;;;8.15;7.35;;;11.70;99.90;;;;;;5046208;28;20101;-77
2021/12/12 03:21:34;;;;;;;12.40;7.45;;;11.80;99.90;;;;;;5045873;28;20044;-79
2021/12/12 03:24:08;;;;;;;8.02;7.32;;;11.70;99.90;;;;;;5046451;28;20053;-77
2021/12/12 03:26:36;;;;;;;8.75;7.95;;;11.80;99.90;;;;;;5048052;28;20044;-75
2021/12/12 03:29:05;;;;;;;11.35;8.40;;;11.70;99.90;;;;;;5047737;28;20157;-76
2021/12/12 03:31:35;;;;;;;9.52;7.95;;;11.70;99.90;;;;;;5047874;28;20021;-76
2021/12/12 03:34:06;;;;;;;9.25;8.40;;;11.70;99.90;;;;;;5047496;28;20033;-77
2021/12/12 03:36:31;;;;;;;9.35;8.48;;;11.70;99.90;;;;;;5047582;28;20021;-80
2021/12/12 03:39:02;;;;;;;12.40;8.55;;;11.70;99.90;;;;;;5047655;28;20033;-75
2021/12/12 03:41:32;;;;;;;10.10;9.27;;;11.70;99.90;;;;;;5047334;28;20112;-75
2021/12/12 03:44:01;;;;;;;10.40;9.25;;;11.60;99.90;;;;;;5047402;28;20506;-77
2021/12/12 03:46:27;;;;;;;12.35;10.23;;;11.60;99.90;;;;;;5047229;28;20021;-79
2021/12/12 03:48:53;;;;;;;;;;;11.60;99.90;;;;;;5047631;28;20116;-76
2021/12/12 03:51:21;;;;;;;12.23;9.95;;;11.60;99.90;;;;;;5047327;28;20426;-78
2021/12/12 03:53:47;;;;;;;10.90;10.00;;;11.60;99.90;;;;;;5047436;28;20029;-77
2021/12/12 03:56:13;;;;;;;;;;;11.60;99.90;;;;;;5047707;28;20082;-77
2021/12/12 03:58:39;;;;;;;10.88;9.93;;;11.60;99.90;;;;;;5047431;28;19920;-78
2021/12/12 04:01:25;;;;;;;13.88;12.00;;;11.50;99.90;;;;;;5046197;28;20029;-76
2021/12/12 04:03:54;;;;;;;11.88;10.98;;;11.50;99.90;;;;;;5047381;28;20387;-77
2021/12/12 04:06:25;;;;;;;11.45;10.45;;;11.50;99.90;;;;;;5047454;28;20084;-77
2021/12/12 04:08:52;;;;;;;11.18;10.32;;;11.50;99.90;;;;;;5047352;28;20044;-79
2021/12/12 04:11:39;;;;;;;13.63;11.10;;;11.50;99.90;;;;;;5045806;28;20395;-79
2021/12/12 04:14:08;;;;;;;11.50;9.32;;;11.40;99.90;;;;;;5047279;28;20387;-77
2021/12/12 04:16:37;;;;;;;11.35;10.43;;;11.50;99.90;;;;;;5047283;28;20147;-76
2021/12/12 04:19:05;;;;;;;11.05;10.07;;;11.50;99.90;;;;;;5047128;28;20025;-78
2021/12/12 04:21:32;;;;;;;12.50;10.25;;;11.50;99.90;;;;;;5047010;28;20064;-77
2021/12/12 04:23:59;;;;;;;10.95;9.75;;;11.50;99.90;;;;;;5046804;28;20049;-75
2021/12/12 04:26:32;;;;;;;13.88;10.00;;;11.50;99.90;;;;;;5045563;28;20041;-73
2021/12/12 04:29:15;;;;;;;11.13;10.00;;;11.40;99.90;;;;;;5047182;28;20028;-75
2021/12/12 04:31:49;;;;;;;11.43;10.05;;;11.40;99.90;;;;;;5047014;28;20028;-77
2021/12/12 04:34:17;;;;;;;10.07;9.38;;;11.40;99.90;;;;;;5047548;28;20071;-76
2021/12/12 04:36:45;;;;;;;12.52;9.18;;;11.40;99.90;;;;;;5049273;28;20036;-78
2021/12/12 04:39:19;;;;;;;10.32;9.48;;;11.40;99.90;;;;;;5050476;28;20384;-78
2021/12/12 04:41:47;;;;;;;10.60;9.50;;;11.40;99.90;;;;;;5050570;28;20024;-80
2021/12/12 04:44:19;;;;;;;10.75;9.68;;;11.40;99.90;;;;;;5050459;28;20033;-77
2021/12/12 04:50:03;;;;;;;14.57;10.00;;;11.30;99.90;;;;;;5050499;28;20399;-78
2021/12/12 04:52:56;;;;;;;12.10;9.85;;;11.30;99.90;;;;;;5049083;28;20029;-75
2021/12/12 04:55:28;;;;;;;13.25;10.13;;;11.30;99.90;;;;;;5047940;28;20041;-76
2021/12/12 04:58:20;;;;;;;13.77;9.15;;;11.30;99.90;;;;;;5050226;28;20492;-78
2021/12/12 05:00:56;;;;;;;11.90;9.52;;;11.40;99.90;;;;;;5048779;28;20055;-77
2021/12/12 05:03:56;;;;;;;11.80;9.35;;;11.30;99.90;;;;;;5050131;28;20020;-78
2021/12/12 05:06:43;;;;;;;11.48;9.18;;;11.30;99.90;;;;;;5041583;28;20029;-74
2021/12/12 05:09:14;;;;;;;15.68;8.50;;;11.30;99.90;;;;;;5046311;28;20510;-77
2021/12/12 05:11:54;;;;;;;10.18;8.60;;;11.30;99.90;;;;;;5048659;28;20495;-78
2021/12/12 05:14:24;;;;;;;11.50;9.23;;;11.30;99.90;;;;;;5050134;28;20106;-81
2021/12/12 05:17:18;;;;;;;15.10;8.73;;;11.30;99.90;;;;;;5050421;28;20367;-75
2021/12/12 05:19:49;;;;;;;14.25;8.77;;;11.30;99.90;;;;;;5045569;28;20037;-78
2021/12/12 05:22:19;;;;;;;12.82;8.77;;;11.30;99.90;;;;;;5049902;28;20021;-79
2021/12/12 05:24:50;;;;;;;10.00;8.40;;;11.30;99.90;;;;;;5047282;28;20060;-78
2021/12/12 05:27:20;;;;;;;10.63;9.50;;;11.30;99.90;;;;;;5049644;28;20064;-78
2021/12/12 05:30:04;;;;;;;13.52;8.85;;;11.30;99.90;;;;;;5049933;28;20044;-77
2021/12/12 05:32:32;;;;;;;13.48;9.57;;;11.30;99.90;;;;;;5049765;28;20040;-76
2021/12/12 05:35:00;;;;;;;18.08;10.25;;;11.30;99.90;;;;;;5048083;28;20056;-78
2021/12/12 05:37:26;;;;;;;15.82;9.85;;;11.30;99.90;;;;;;5049453;28;20082;-77
2021/12/12 05:39:52;;;;;;;;;;;11.30;99.90;;;;;;5049875;28;20098;-74
2021/12/12 05:42:19;;;;;;;10.80;9.18;;;11.30;99.90;;;;;;5049445;28;20378;-76
2021/12/12 05:44:45;;;;;;;17.30;9.40;;;11.30;99.90;;;;;;5049406;28;20108;-78
2021/12/12 05:47:12;;;;;;;10.63;9.35;;;11.30;99.90;;;;;;5048604;28;20025;-76
2021/12/12 05:49:41;;;;;;;12.68;11.00;;;11.30;99.90;;;;;;5047860;28;20499;-76
2021/12/12 05:52:09;;;;;;;12.80;10.88;;;11.30;99.90;;;;;;5049272;28;20368;-78
2021/12/12 05:54:36;;;;;;;16.55;11.65;;;11.40;99.90;;;;;;5049267;28;20024;-75
2021/12/12 05:57:03;;;;;;;14.30;12.93;;;11.30;99.90;;;;;;5047764;28;20051;-78
2021/12/12 05:59:29;;;;;;;16.92;13.57;;;11.30;99.90;;;;;;5047639;28;20032;-76
2021/12/12 06:01:58;;;;;;;13.38;12.05;;;11.30;99.90;;;;;;5048938;28;20021;-77
2021/12/12 06:04:25;;;;;;;14.32;13.00;;;11.30;99.90;;;;;;5048778;28;20051;-77
2021/12/12 06:06:51;;;;;;;14.23;12.77;;;11.30;99.90;;;;;;5048926;28;20036;-78
2021/12/12 06:09:17;;;;;;;;;;;11.30;99.90;;;;;;5031670;28;20036;-79
2021/12/12 06:11:49;;;;;;;12.82;11.63;;;11.30;99.90;;;;;;5047582;28;19948;-76
2021/12/12 06:14:16;;;;;;;13.60;12.18;;;11.30;99.90;;;;;;5048793;28;20059;-75
2021/12/12 06:16:43;;;;;;;12.05;10.90;;;11.30;99.90;;;;;;5047261;28;20040;-77
2021/12/12 06:19:15;;;;;;;10.82;10.02;;;11.30;99.90;;;;;;5048670;28;20065;-76
2021/12/12 06:21:42;;;;;;;14.65;10.65;;;11.40;99.90;;;;;;5048743;28;20035;-78
2021/12/12 06:24:09;;;;;;;12.23;9.68;;;11.40;99.90;;;;;;5046238;28;20120;-80
2021/12/12 06:26:37;;;;;;;10.63;9.50;;;11.40;99.90;;;;;;5047319;28;20024;-77
2021/12/12 06:29:03;;;;;;;9.73;8.73;;;11.40;99.90;;;;;;5047354;28;20022;-78
2021/12/12 06:31:28;;;;;;;;;;;11.40;99.90;;;;;;5047641;28;20036;-77
2021/12/12 06:33:56;;;;;;;9.70;8.73;;;11.50;99.90;;;;;;5047058;28;19928;-74
2021/12/12 06:36:22;;;;;;;10.38;8.65;;;11.50;99.90;;;;;;5046760;28;20558;-77
2021/12/12 06:38:52;;;;;;;11.63;8.13;;;11.40;99.90;;;;;;5048274;28;20491;-79
2021/12/12 06:41:19;;;;;;;11.15;8.70;;;11.50;99.90;;;;;;5046903;28;20115;-77
2021/12/12 06:43:45;;;;;;;9.40;8.48;;;11.50;99.90;;;;;;5048454;28;20030;-79
2021/12/12 06:46:11;;;;;;;10.70;8.80;;;11.50;99.90;;;;;;5048178;28;20021;-78
2021/12/12 06:48:39;;;;;;;10.80;8.95;;;11.50;99.90;;;;;;5048029;28;20025;-76
2021/12/12 06:51:05;;;;;;;13.10;8.63;;;11.50;99.90;;;;;;5047874;28;20065;-75
2021/12/12 06:53:34;;;;;;;10.30;8.88;;;11.50;99.90;;;;;;5046812;28;20025;-77
2021/12/12 06:56:02;;;;;;;11.20;8.85;;;11.50;99.90;;;;;;5047816;28;20293;-78
2021/12/12 06:58:30;;;;;;;13.48;8.73;;;11.50;99.90;;;;;;5030519;28;20040;-78
2021/12/12 07:01:16;;;;;;;12.57;8.77;;;11.50;99.90;;;;;;5047908;28;20021;-77
2021/12/12 07:03:43;;;;;;;12.50;9.13;;;11.50;99.90;;;;;;5047899;28;20017;-78
2021/12/12 07:06:10;;;;;;;10.82;9.07;;;11.50;99.90;;;;;;5046541;28;20410;-79
2021/12/12 07:08:35;;;;;;;;;;;11.50;99.90;;;;;;5048213;28;20021;-80
2021/12/12 07:11:03;;;;;;;9.10;8.50;;;11.50;99.90;;;;;;5046440;28;19919;-77
2021/12/12 07:13:29;;;;;;;10.18;9.25;;;11.50;99.90;;;;;;5047604;28;20021;-77
2021/12/12 07:15:57;;;;;;;12.18;9.20;;;11.40;99.90;;;;;;5047621;28;20029;-79
2021/12/12 07:18:27;;;;;;;9.75;8.85;;;11.40;99.90;;;;;;5047712;28;20032;-78
2021/12/12 07:20:55;;;;;;;9.63;8.55;;;11.40;99.90;;;;;;5047649;28;20060;-76
2021/12/12 07:23:22;;;;;;;13.10;8.82;;;11.50;99.90;;;;;;5046322;28;20368;-79
2021/12/12 07:25:48;;;;;;;8.60;7.70;;;11.50;99.90;;;;;;5047341;28;20041;-76
2021/12/12 07:28:14;;;;;;;;;;;11.50;99.90;;;;;;5046740;28;20045;-74
2021/12/12 07:30:41;;;;;;;8.77;7.82;;;11.50;99.90;;;;;;5047649;28;20403;-75
2021/12/12 07:33:07;;;;;;;11.20;8.00;;;11.50;99.90;;;;;;5046431;28;20036;-79
2021/12/12 07:35:36;;;;;;;8.43;7.63;;;11.40;99.90;;;;;;5046273;28;20067;-78
2021/12/12 07:38:06;;;;;;;9.25;8.40;;;11.40;99.90;;;;;;5047477;28;20076;-75
2021/12/12 07:40:32;;;;;;;9.77;8.13;;;11.30;99.90;;;;;;5047407;28;20052;-76
2021/12/12 07:42:58;;;;;;;10.23;7.88;;;11.30;99.90;;;;;;5047320;28;20545;-79
2021/12/12 07:45:24;;;;;;;8.82;7.28;;;11.30;99.90;;;;;;5047331;28;20549;-77
2021/12/12 07:47:52;;;;;;;7.88;7.00;;;11.30;99.90;;;;;;5047519;28;20060;-79
2021/12/12 07:50:22;;;;;;;8.95;7.90;;;11.30;99.90;;;;;;5045944;28;20033;-76
2021/12/12 07:52:49;;;;;;;10.45;7.47;;;11.30;99.90;;;;;;5047529;28;20468;-76
2021/12/12 07:55:15;;;;;;;8.35;7.63;;;11.30;99.90;;;;;;5029090;28;20044;-76
2021/12/12 07:57:41;;;;;;;;;;;11.40;99.90;;;;;;5047695;28;20137;-76
2021/12/12 08:00:14;;;;;;;9.48;7.50;;;11.40;99.90;;;;;;5045783;28;20016;-76
2021/12/12 08:02:41;;;;;;;10.63;7.82;;;11.40;99.90;;;;;;5047252;28;20019;-76
2021/12/12 08:05:09;;;;;;;9.27;7.68;;;11.40;99.90;;;;;;5029326;28;20030;-76
2021/12/12 08:07:36;;;;;;;9.52;7.82;;;11.40;99.90;;;;;;5047263;28;20491;-77
2021/12/12 08:10:04;;;;;;;8.50;7.57;;;11.40;99.90;;;;;;5049098;28;20472;-76
2021/12/12 08:12:31;;;;;;;13.52;10.05;;;11.40;99.90;;;;;;5049958;28;20024;-76
2021/12/12 08:14:57;;;;;;;15.93;8.93;;;11.40;99.90;;;;;;5050653;28;20035;-77
2021/12/12 08:17:24;;;;;;;12.73;9.20;;;11.40;99.90;;;;;;5049479;28;20036;-77
2021/12/12 08:19:50;;;;;;;12.25;8.43;;;11.40;99.90;;;;;;5050616;28;20033;-77
2021/12/12 08:22:18;;;;;;;11.27;10.00;;;11.30;99.90;;;;;;5050680;28;20479;-76
2021/12/12 08:24:45;;;;;;;13.60;9.23;;;11.30;99.90;;;;;;5050615;28;20040;-77
2021/12/12 08:27:12;;;;;;;11.88;9.77;;;11.30;99.90;;;;;;5049281;28;20435;-77
2021/12/12 08:29:39;;;;;;;11.40;9.07;;;11.30;99.90;;;;;;5048872;28;20025;-77
2021/12/12 08:32:08;;;;;;;11.00;9.95;;;11.30;99.90;;;;;;5049179;28;20029;-77
2021/12/12 08:34:35;;;;;;;14.18;10.70;;;11.30;99.90;;;;;;5049399;28;20029;-77
2021/12/12 08:37:01;;;;;;;14.88;13.25;;;11.20;99.90;;;;;;5049329;28;20251;-79
2021/12/12 08:39:28;;;;;;;14.60;13.10;;;11.20;99.90;;;;;;5049139;28;20040;-78
2021/12/12 08:41:54;;;;;;;;;;;11.20;99.90;;;;;;5049649;28;20025;-76
2021/12/12 08:44:21;;;;;;;16.17;13.27;;;11.20;99.90;;;;;;5050501;28;19970;-77
2021/12/12 08:46:51;;;;;;;17.88;13.40;;;11.20;99.90;;;;;;5049096;28;20040;-79
2021/12/12 08:49:19;;;;;;;19.33;13.25;;;11.20;99.90;;;;;;5050377;28;20112;-77
2021/12/12 08:51:50;;;;;;;15.02;13.20;;;11.10;99.90;;;;;;5048932;28;20482;-75
2021/12/12 08:54:25;;;;;;;20.98;13.82;;;11.00;99.90;;;;;;5048806;28;20021;-77
2021/12/12 08:57:02;;;;;;;14.55;12.48;;;11.10;99.90;;;;;;5050247;28;20024;-79
2021/12/12 08:59:31;;;;;;;18.90;12.68;;;11.10;99.90;;;;;;5049974;28;20071;-77
2021/12/12 09:02:04;;;;;;;18.58;11.32;;;11.20;99.90;;;;;;5049714;28;20056;-80
2021/12/12 09:04:32;;;;;;;21.60;12.50;;;11.30;99.90;;;;;;5050004;28;20088;-79
2021/12/12 09:07:05;;;;;;;16.63;10.85;;;11.40;99.90;;;;;;5050158;28;20018;-77
2021/12/12 09:09:39;;;;;;;17.08;11.70;;;11.40;99.90;;;;;;5048370;28;20366;-76
2021/12/12 09:12:10;;;;;;;15.95;10.98;;;11.50;99.90;;;;;;5049888;28;20479;-78
2021/12/12 09:15:10;;;;;;;14.70;9.70;;;11.60;99.90;;;;;;5049792;28;20032;-79
2021/12/12 09:17:53;;;;;;;16.27;8.52;;;11.60;99.90;;;;;;5046618;28;20029;-76
2021/12/12 09:20:34;;;;;;;16.85;10.18;;;11.80;99.90;;;;;;5047822;28;20035;-79
2021/12/12 09:23:13;;;;;;;15.27;12.25;;;11.80;99.90;;;;;;5049422;28;20070;-78
2021/12/12 09:25:52;;;;;;;16.50;10.55;;;11.90;99.90;;;;;;5049269;28;20048;-76
2021/12/12 09:28:48;;;;;;;11.65;10.00;;;12.00;99.90;;;;;;5049654;28;20045;-75
2021/12/12 09:31:31;;;;;;;13.45;9.32;;;12.10;99.90;;;;;;5048226;28;20382;-78
2021/12/12 09:34:07;;;;;;;10.95;9.02;;;12.20;99.90;;;;;;5049516;28;20032;-75
2021/12/12 09:36:39;;;;;;;16.77;10.27;;;12.10;99.90;;;;;;5047871;28;20110;-77
2021/12/12 09:39:25;;;;;;;11.73;8.98;;;12.20;99.90;;;;;;5049119;28;20032;-78
2021/12/12 09:42:02;;;;;;;11.43;8.52;;;12.30;99.90;;;;;;5049084;28;20033;-76
2021/12/12 09:44:43;;;;;;;10.23;9.18;;;12.30;99.90;;;;;;5047666;28;20025;-74
2021/12/12 09:47:46;;;;;;;11.98;10.25;;;12.40;99.90;;;;;;5047571;28;20139;-75
2021/12/12 09:54:02;;;;;;;9.25;8.45;;;12.50;99.90;;;;;;5048727;28;20111;-75
2021/12/12 09:57:06;;;;;;;10.13;9.13;;;12.60;99.90;;;;;;5049164;28;20029;-77
2021/12/12 09:59:58;;;;;;;9.18;7.88;;;12.70;99.90;;;;;;5047731;28;20037;-78
2021/12/12 10:02:43;;;;;;;7.55;5.95;;;12.90;99.90;;;;;;5047284;28;20032;-76
2021/12/12 10:05:37;;;;;;;7.13;4.38;;;13.10;99.90;;;;;;5048452;28;20060;-77
2021/12/12 10:08:16;;;;;;;10.23;4.00;;;13.20;99.90;;;;;;5048349;28;20023;-76
2021/12/12 10:10:51;;;;;;;5.05;4.10;;;13.30;99.90;;;;;;5047370;28;20086;-76
2021/12/12 10:13:43;;;;;;;3.78;3.00;;;13.50;99.90;;;;;;5047059;28;20033;-79
2021/12/12 10:17:00;;;;;;;5.15;1.80;;;13.70;99.90;;;;;;5045549;28;20100;-79
2021/12/12 10:19:41;;;;;;;6.43;1.80;;;14.00;99.90;;;;;;5030294;28;20455;-81
2021/12/12 10:22:31;;;;;;;2.58;1.10;;;14.40;99.90;;;;;;5048358;28;20108;-76
2021/12/12 10:25:00;;;;;;;3.75;1.00;;;14.90;99.90;;;;;;5048027;28;20511;-78
2021/12/12 10:27:44;;;;;;;1.58;0.60;;;15.30;99.90;;;;;;5048155;28;20017;-76
2021/12/12 10:30:19;;;;;;;4.28;0.75;;;15.60;99.90;;;;;;5048033;28;20025;-79
2021/12/12 10:33:15;;;;;;;3.70;1.05;;;16.00;99.90;;;;;;5046549;28;20499;-77
2021/12/12 10:35:54;;;;;;;3.33;0.77;;;16.40;99.90;;;;;;5048339;28;20036;-79
2021/12/12 10:38:23;;;;;;;2.42;0.70;;;16.70;99.90;;;;;;5046877;28;20848;-80
2021/12/12 10:40:55;;;;;;;1.77;0.77;;;16.80;99.90;;;;;;5047893;28;20541;-78
2021/12/12 10:43:27;;;;;;;3.80;0.75;;;16.80;99.90;;;;;;5047989;28;20168;-78
2021/12/12 10:46:17;;;;;;;0.55;0.30;;;16.90;99.90;;;;;;5046262;28;20046;-78
2021/12/12 10:48:55;;;;;;;0.95;0.30;;;17.20;99.90;;;;;;5036505;28;20116;-78
2021/12/12 10:51:22;;;;;;;2.08;0.70;;;17.50;99.90;;;;;;5046307;28;20033;-76
2021/12/12 10:54:17;;;;;;;1.02;0.30;;;17.80;99.90;;;;;;5013267;28;20549;-78
2021/12/12 10:57:09;;;;;;;1.42;0.43;;;17.80;99.00;;;;;;5046104;28;20448;-78
2021/12/12 10:59:56;;;;;;;0.77;0.50;;;17.40;98.20;;;;;;5047477;28;20431;-78
2021/12/12 11:02:29;;;;;;;0.60;0.55;;;16.90;98.00;;;;;;5046254;28;20071;-80
2021/12/12 11:05:08;;;;;;;1.45;0.73;;;16.50;98.00;;;;;;5046102;28;20040;-77
2021/12/12 11:07:52;;;;;;;2.75;1.00;;;16.30;98.60;;;;;;5047355;28;20036;-77
2021/12/12 11:10:26;;;;;;;1.05;0.80;;;16.10;98.60;;;;;;5047318;28;20058;-75
2021/12/12 11:12:57;;;;;;;0.75;0.55;;;15.90;98.50;;;;;;5045785;28;20432;-75
2021/12/12 11:15:40;;;;;;;1.60;1.13;;;15.80;99.20;;;;;;5046436;28;20079;-76
2021/12/12 11:18:14;;;;;;;1.58;1.00;;;15.70;99.30;;;;;;5047255;28;20036;-77
2021/12/12 11:20:48;;;;;;;1.75;0.90;;;15.70;99.40;;;;;;5047021;28;20032;-78
2021/12/12 11:23:41;;;;;;;1.92;0.70;;;15.80;99.40;;;;;;5045591;28;20119;-77
2021/12/12 11:26:19;;;;;;;2.72;1.10;;;15.80;99.10;;;;;;5047078;28;20483;-77
2021/12/12 11:28:54;;;;;;;4.15;0.95;;;15.70;99.10;;;;;;5046688;28;20054;-77
2021/12/12 11:31:26;;;;;;;3.17;0.73;;;15.70;99.00;;;;;;5029542;28;20076;-78
2021/12/12 11:33:53;;;;;;;2.42;0.60;;;15.70;99.10;;;;;;5046952;28;20021;-78
2021/12/12 11:36:26;;;;;;;2.38;0.55;;;15.90;99.90;;;;;;5046988;28;20040;-77
2021/12/12 11:38:56;;;;;;;1.20;0.80;;;16.30;99.80;;;;;;5045594;28;20029;-77
2021/12/12 11:41:32;;;;;;;3.15;0.70;;;16.50;99.10;;;;;;5046775;28;20431;-78
2021/12/12 11:44:05;;;;;;;0.63;0.40;;;16.40;98.50;;;;;;5046957;28;20074;-79
2021/12/12 11:47:16;;;;;;;3.13;0.82;;;16.40;98.60;;;;;;5049318;28;20471;-77
2021/12/12 11:49:56;;;;;;;3.38;0.60;;;16.50;98.80;;;;;;5030484;28;20059;-78
2021/12/12 11:52:50;;;;;;;1.15;0.40;;;16.90;98.70;;;;;;5048999;28;20056;-76
2021/12/12 11:55:24;;;;;;;1.50;0.40;;;17.10;98.10;;;;;;5050164;28;20020;-78
2021/12/12 11:58:09;;;;;;;1.55;0.43;;;17.20;97.80;;;;;;5050740;28;20052;-77
2021/12/12 12:00:41;;;;;;;0.85;0.20;;;17.20;97.40;;;;;;5050407;28;20037;-78
2021/12/12 12:03:27;;;;;;;0.60;0.22;;;17.50;97.30;;;;;;5051346;28;20055;-78
2021/12/12 12:05:59;;;;;;;1.50;0.50;;;17.60;96.90;;;;;;5050724;28;20032;-79
2021/12/12 12:08:43;;;;;;;0.47;0.30;;;17.80;96.60;;;;;;5050185;28;20048;-78
2021/12/12 12:11:26;;;;;;;0.75;0.30;;;17.90;96.10;;;;;;5050218;28;20548;-77
2021/12/12 12:13:58;;;;;;;0.43;0.17;;;17.90;95.50;;;;;;5048964;28;20122;-76
2021/12/12 12:16:42;;;;;;;2.15;0.30;;;17.70;95.20;;;;;;5050594;28;20036;-77
2021/12/12 12:19:28;;;;;;;0.90;0.20;;;17.50;94.80;;;;;;5050271;28;20078;-77
2021/12/12 12:22:28;;;;;;;0.55;0.22;;;17.30;95.30;;;;;;5038699;28;20044;-79
2021/12/12 12:25:15;;;;;;;1.55;0.40;;;17.30;95.50;;;;;;5049885;28;20131;-81
2021/12/12 12:27:44;;;;;;;;;;;17.10;95.20;;;;;;5049198;28;20029;-79
2021/12/12 12:30:48;;;;;;;0.68;0.30;;;16.80;95.10;;;;;;5050400;28;19904;-78
2021/12/12 12:34:11;;;;;;;1.08;0.70;;;16.40;95.20;;;;;;5048384;28;20023;-80
2021/12/12 12:37:22;;;;;;;0.98;0.70;;;16.00;95.70;;;;;;5026860;28;20448;-75
2021/12/12 12:40:09;;;;;;;4.68;1.10;;;15.70;96.50;;;;;;5026725;28;20095;-79
2021/12/12 12:43:11;;;;;;;1.27;0.88;;;15.50;96.80;;;;;;5047423;28;20037;-78
2021/12/12 12:46:08;;;;;;;2.05;0.85;;;15.40;97.10;;;;;;5049321;28;20475;-78
2021/12/12 12:48:45;;;;;;;1.85;1.08;;;15.30;97.30;;;;;;5048411;28;20459;-78
2021/12/12 12:51:48;;;;;;;2.45;0.98;;;15.10;97.50;;;;;;5048415;28;20025;-76
2021/12/12 12:54:30;;;;;;;3.40;0.93;;;15.00;97.80;;;;;;5048449;28;20025;-75
2021/12/12 12:57:24;;;;;;;0.95;0.73;;;14.90;98.00;;;;;;5049575;28;20398;-76
2021/12/12 13:00:23;;;;;;;5.22;1.20;;;14.70;98.20;;;;;;5049129;28;20083;-79
2021/12/12 13:03:10;;;;;;;1.10;0.70;;;14.70;98.50;;;;;;5047684;28;20059;-76
2021/12/12 13:06:00;;;;;;;0.50;0.45;;;14.60;98.70;;;;;;5047968;28;20018;-76
2021/12/12 13:09:04;;;;;;;1.35;0.80;;;14.60;99.00;;;;;;5047981;28;20017;-77
2021/12/12 13:11:45;;;;;;;1.58;0.88;;;14.60;99.10;;;;;;5049236;28;20104;-76
2021/12/12 13:14:36;;;;;;;1.65;0.75;;;14.50;99.20;;;;;;5048532;28;20029;-79
2021/12/12 13:17:41;;;;;;;1.30;0.80;;;14.60;99.50;;;;;;5028695;28;20033;-80
2021/12/12 13:20:31;;;;;;;2.72;0.85;;;14.60;99.60;;;;;;5041061;28;20102;-76
2021/12/12 13:23:28;;;;;;;2.35;1.08;;;14.60;99.50;;;;;;5049030;28;20027;-77
2021/12/12 13:26:01;;;;;;;1.63;0.90;;;14.60;99.60;;;;;;5048464;28;20045;-78
2021/12/12 13:28:32;;;;;;;1.17;0.95;;;14.60;99.80;;;;;;5049268;28;20013;-77
2021/12/12 13:31:01;;;;;;;1.45;1.00;;;14.70;99.80;;;;;;5048989;28;20028;-78
2021/12/12 13:33:47;;;;;;;1.40;1.02;;;14.70;99.80;;;;;;5048441;28;20323;-77
2021/12/12 13:36:28;;;;;;;3.00;1.23;;;14.70;99.90;;;;;;5048602;28;20494;-75
2021/12/12 13:39:07;;;;;;;2.03;1.27;;;14.80;99.90;;;;;;5048599;28;20097;-77
2021/12/12 13:42:17;;;;;;;1.30;1.20;;;14.80;99.80;;;;;;5048404;28;20554;-79